Time;durP1;ratioP1;P1;durP2;ratioP2;P2;SDS_P1;SDS_P2;PMS_P1;PMS_P2;Temp;Humidity;BMP_temperature;BMP_pressure;BME280_temperature;BME280_humidity;BME280_pressure;Samples;Min_cycle;Max_cycle;Signal;HPM_P1;HPM_P2
2023/07/15 00:01:24;;;;;;;6.15;4.28;;;20.10;99.90;;;;;;4994384;28;20052;-49
2023/07/15 00:03:51;;;;;;;4.53;3.47;;;20.10;99.90;;;;;;4996369;28;20091;-49
2023/07/15 00:06:17;;;;;;;9.43;3.90;;;20.10;99.90;;;;;;4979164;28;20045;-48
2023/07/15 00:08:44;;;;;;;5.05;3.88;;;20.10;99.90;;;;;;5011999;28;20491;-48
2023/07/15 00:11:44;;;;;;;7.00;3.80;;;20.10;99.90;;;;;;5009204;28;20080;-51
2023/07/15 00:14:23;;;;;;;9.70;4.03;;;20.20;99.80;;;;;;4988414;28;20857;-49
2023/07/15 00:16:52;;;;;;;8.73;4.22;;;20.20;99.70;;;;;;4997267;28;20041;-49
2023/07/15 00:19:18;;;;;;;8.75;3.92;;;20.10;99.70;;;;;;5015416;28;20049;-51
2023/07/15 00:21:45;;;;;;;8.18;4.00;;;20.20;99.70;;;;;;5015005;28;20589;-49
2023/07/15 00:24:11;;;;;;;7.03;4.00;;;20.20;99.60;;;;;;4987936;28;20059;-47
2023/07/15 00:26:38;;;;;;;5.68;3.75;;;20.20;99.60;;;;;;4999724;28;20063;-48
2023/07/15 00:29:05;;;;;;;5.68;3.75;;;20.20;99.50;;;;;;5013705;28;20049;-48
2023/07/15 00:31:32;;;;;;;3.90;3.10;;;20.20;99.40;;;;;;5015326;28;21003;-51
2023/07/15 00:33:58;;;;;;;7.00;3.80;;;20.20;99.30;;;;;;5016998;28;20088;-49
2023/07/15 00:36:26;;;;;;;11.10;3.85;;;20.20;99.00;;;;;;5013998;28;20056;-49
2023/07/15 00:38:53;;;;;;;6.43;3.92;;;20.20;98.70;;;;;;4999789;28;20048;-49
2023/07/15 00:41:33;;;;;;;7.30;3.85;;;20.20;98.40;;;;;;4997043;28;20134;-49
2023/07/15 00:43:58;;;;;;;5.97;3.50;;;20.30;98.20;;;;;;5012857;28;20068;-48
2023/07/15 00:46:48;;;;;;;7.68;3.97;;;20.30;97.90;;;;;;5014707;28;20139;-49
2023/07/15 00:49:17;;;;;;;6.47;3.55;;;20.40;97.70;;;;;;4994826;28;20045;-50
2023/07/15 00:52:02;;;;;;;10.02;3.92;;;20.40;97.50;;;;;;5014133;28;20119;-47
2023/07/15 00:54:31;;;;;;;7.82;3.85;;;20.40;97.30;;;;;;5013246;28;20400;-49
2023/07/15 00:57:00;;;;;;;5.00;3.30;;;20.40;97.20;;;;;;4998001;28;20147;-48
2023/07/15 00:59:26;;;;;;;6.43;3.53;;;20.50;97.00;;;;;;5015702;28;20739;-48
2023/07/15 01:01:53;;;;;;;6.07;3.70;;;20.50;96.90;;;;;;4994931;28;20146;-50
2023/07/15 01:04:20;;;;;;;4.95;3.13;;;20.50;96.80;;;;;;4995751;28;20381;-49
2023/07/15 01:06:46;;;;;;;6.60;3.80;;;20.60;96.70;;;;;;4996446;28;20483;-47
2023/07/15 01:09:13;;;;;;;9.40;3.30;;;20.50;96.60;;;;;;4962850;28;20103;-49
2023/07/15 01:11:39;;;;;;;5.97;3.42;;;20.50;96.40;;;;;;5013224;28;20049;-47
2023/07/15 01:14:05;;;;;;;4.32;3.15;;;20.50;96.20;;;;;;5013822;28;20041;-47
2023/07/15 01:16:32;;;;;;;9.38;3.40;;;20.60;95.60;;;;;;5000658;28;20041;-48
2023/07/15 01:18:58;;;;;;;9.13;3.40;;;20.60;95.60;;;;;;5014788;28;20085;-49
2023/07/15 01:21:28;;;;;;;8.57;3.53;;;20.60;95.60;;;;;;5014068;28;20919;-49
2023/07/15 01:23:54;;;;;;;6.90;3.53;;;20.60;95.60;;;;;;4996370;28;20049;-47
2023/07/15 01:26:19;;;;;;;8.88;3.22;;;20.60;95.60;;;;;;4981410;28;20075;-47
2023/07/15 01:28:45;;;;;;;5.47;3.20;;;20.60;95.80;;;;;;5013932;28;21633;-48
2023/07/15 01:31:13;;;;;;;5.00;3.10;;;20.50;95.80;;;;;;4996060;28;20054;-51
2023/07/15 01:33:38;;;;;;;5.55;3.50;;;20.50;95.90;;;;;;5009844;28;20038;-48
2023/07/15 01:36:04;;;;;;;7.35;3.38;;;20.50;95.80;;;;;;4985373;28;20110;-48
2023/07/15 01:38:31;;;;;;;5.38;3.38;;;20.50;95.80;;;;;;5011907;28;20042;-48
2023/07/15 01:40:57;;;;;;;6.00;3.30;;;20.50;95.80;;;;;;4992263;28;20046;-47
2023/07/15 01:43:23;;;;;;;5.45;3.53;;;20.50;95.90;;;;;;5013299;28;20122;-50
2023/07/15 01:45:49;;;;;;;4.40;3.15;;;20.40;95.90;;;;;;4996848;28;20834;-48
2023/07/15 01:48:14;;;;;;;5.68;3.53;;;20.40;95.80;;;;;;4993459;28;20530;-49
2023/07/15 01:50:42;;;;;;;4.45;3.05;;;20.40;95.70;;;;;;4998122;28;20089;-47
2023/07/15 01:53:07;;;;;;;6.80;3.13;;;20.40;95.80;;;;;;5009863;28;20117;-51
2023/07/15 01:55:33;;;;;;;5.78;3.20;;;20.40;95.60;;;;;;5014710;28;20403;-47
2023/07/15 01:58:01;;;;;;;5.90;3.35;;;20.40;95.60;;;;;;5002229;28;20038;-48
2023/07/15 02:00:29;;;;;;;4.13;3.20;;;20.40;95.50;;;;;;5015912;28;20108;-47
2023/07/15 02:02:55;;;;;;;6.70;3.20;;;20.40;95.50;;;;;;5013843;28;20044;-50
2023/07/15 02:05:21;;;;;;;6.32;3.20;;;20.40;95.50;;;;;;5000669;28;20480;-51
2023/07/15 02:07:48;;;;;;;5.53;2.97;;;20.40;95.40;;;;;;4994974;28;20500;-48
2023/07/15 02:10:14;;;;;;;8.00;3.28;;;20.40;95.20;;;;;;4998049;28;20111;-48
2023/07/15 02:12:40;;;;;;;4.60;2.78;;;20.40;95.10;;;;;;5014735;28;20041;-49
2023/07/15 02:15:06;;;;;;;7.63;3.00;;;20.40;95.00;;;;;;5001146;28;20507;-47
2023/07/15 02:17:32;;;;;;;4.60;2.67;;;20.40;94.80;;;;;;5012479;28;20396;-48
2023/07/15 02:19:59;;;;;;;6.05;2.90;;;20.40;94.70;;;;;;5015421;28;20037;-47
2023/07/15 02:22:25;;;;;;;4.72;2.90;;;20.50;94.60;;;;;;5015860;28;20096;-48
2023/07/15 02:24:51;;;;;;;6.18;2.90;;;20.50;94.50;;;;;;5015229;28;20480;-47
2023/07/15 02:27:16;;;;;;;6.32;2.80;;;20.50;94.40;;;;;;5015893;28;20041;-46
2023/07/15 02:29:44;;;;;;;5.97;2.97;;;20.50;94.40;;;;;;5014192;28;20463;-49
2023/07/15 02:32:13;;;;;;;6.07;2.97;;;20.50;94.30;;;;;;5013550;28;20116;-48
2023/07/15 02:34:39;;;;;;;9.32;2.85;;;20.40;94.30;;;;;;4996222;28;20040;-47
2023/07/15 02:37:04;;;;;;;5.30;2.88;;;20.40;94.30;;;;;;5013411;28;20045;-47
2023/07/15 02:39:33;;;;;;;4.32;2.60;;;20.40;94.10;;;;;;5014138;28;20340;-47
2023/07/15 02:42:00;;;;;;;5.82;2.55;;;20.40;93.90;;;;;;5015913;28;20099;-46
2023/07/15 02:44:27;;;;;;;6.63;2.80;;;20.40;93.80;;;;;;4994419;28;20075;-48
2023/07/15 02:46:53;;;;;;;3.47;2.50;;;20.40;93.70;;;;;;5012770;28;20045;-48
2023/07/15 02:49:18;;;;;;;3.80;2.28;;;20.40;93.50;;;;;;4999249;28;20034;-48
2023/07/15 02:51:44;;;;;;;3.70;2.70;;;20.40;93.40;;;;;;5012227;28;20483;-47
2023/07/15 02:54:10;;;;;;;8.20;2.47;;;20.40;93.30;;;;;;5013845;28;20121;-48
2023/07/15 02:56:35;;;;;;;9.60;2.78;;;20.50;93.20;;;;;;5013273;28;20042;-48
2023/07/15 02:59:02;;;;;;;5.40;2.65;;;20.50;93.10;;;;;;5011958;28;20052;-47
2023/07/15 03:01:27;;;;;;;5.90;2.50;;;20.50;93.10;;;;;;4993090;28;20494;-49
2023/07/15 03:03:53;;;;;;;6.75;2.60;;;20.40;93.30;;;;;;5013436;28;20037;-46
2023/07/15 03:06:19;;;;;;;4.68;2.75;;;20.40;93.00;;;;;;4995873;28;20052;-47
2023/07/15 03:08:45;;;;;;;5.20;2.85;;;20.40;92.90;;;;;;4980482;28;20038;-51
2023/07/15 03:11:11;;;;;;;4.15;2.50;;;20.40;92.80;;;;;;5013653;28;20405;-49
2023/07/15 03:13:37;;;;;;;4.90;2.63;;;20.50;92.80;;;;;;5012035;28;20369;-47
2023/07/15 03:16:04;;;;;;;6.85;2.83;;;20.50;92.70;;;;;;5014643;28;20042;-47
2023/07/15 03:18:29;;;;;;;4.20;2.60;;;20.50;93.00;;;;;;4979238;28;20045;-50
2023/07/15 03:20:56;;;;;;;4.43;2.67;;;20.50;92.70;;;;;;5017407;28;20496;-48
2023/07/15 03:23:22;;;;;;;7.70;2.70;;;20.50;92.70;;;;;;5015730;28;20044;-50
2023/07/15 03:25:48;;;;;;;5.25;2.58;;;20.50;92.70;;;;;;5015025;28;20536;-48
2023/07/15 03:28:14;;;;;;;7.72;2.78;;;20.40;92.70;;;;;;5017388;28;20041;-47
2023/07/15 03:30:39;;;;;;;10.65;2.72;;;20.40;92.70;;;;;;5014676;28;20072;-49
2023/07/15 03:33:05;;;;;;;5.28;2.65;;;20.40;92.70;;;;;;5005437;28;20507;-49
2023/07/15 03:35:31;;;;;;;5.20;2.72;;;20.40;92.70;;;;;;5014383;28;20291;-48
2023/07/15 03:37:57;;;;;;;6.50;2.90;;;20.40;92.60;;;;;;5016169;28;20582;-51
2023/07/15 03:40:23;;;;;;;5.75;2.70;;;20.40;92.70;;;;;;5000504;28;20051;-51
2023/07/15 03:42:49;;;;;;;6.57;2.70;;;20.30;92.60;;;;;;5018021;28;20543;-51
2023/07/15 03:45:14;;;;;;;7.03;2.80;;;20.30;92.70;;;;;;5017471;28;20046;-48
2023/07/15 03:47:40;;;;;;;5.28;2.65;;;20.30;92.70;;;;;;5013373;28;20444;-48
2023/07/15 03:50:09;;;;;;;4.05;2.65;;;20.30;92.70;;;;;;4998360;28;20478;-48
2023/07/15 03:52:35;;;;;;;5.18;2.67;;;20.20;92.80;;;;;;5000051;28;20458;-46
2023/07/15 03:55:03;;;;;;;6.60;2.78;;;20.20;92.80;;;;;;4993980;28;20095;-49
2023/07/15 03:57:29;;;;;;;4.97;2.70;;;20.20;92.90;;;;;;5014730;28;20053;-48
2023/07/15 03:59:55;;;;;;;4.45;2.70;;;20.20;93.00;;;;;;4984384;28;20061;-49
2023/07/15 04:02:21;;;;;;;8.55;3.05;;;20.10;93.00;;;;;;4998055;28;20038;-49
2023/07/15 04:04:47;;;;;;;3.83;2.47;;;20.10;93.00;;;;;;5015231;28;20400;-47
2023/07/15 04:07:12;;;;;;;7.40;2.60;;;20.10;93.20;;;;;;5013793;28;20053;-49
2023/07/15 04:09:38;;;;;;;4.28;2.80;;;20.10;93.20;;;;;;5014061;28;20476;-48
2023/07/15 04:12:06;;;;;;;4.90;2.60;;;20.00;93.30;;;;;;5015661;28;20041;-47
2023/07/15 04:14:32;;;;;;;5.65;2.70;;;20.00;93.30;;;;;;5015250;28;20045;-48
2023/07/15 04:16:57;;;;;;;4.22;2.58;;;20.00;93.40;;;;;;4995310;28;20040;-49
2023/07/15 04:19:23;;;;;;;4.32;2.60;;;20.00;93.40;;;;;;5013408;28;20038;-48
2023/07/15 04:21:49;;;;;;;10.45;2.65;;;19.90;93.50;;;;;;4996813;28;20402;-50
2023/07/15 04:24:14;;;;;;;6.55;3.00;;;19.90;93.60;;;;;;5013962;28;20041;-47
2023/07/15 04:26:40;;;;;;;4.63;2.83;;;19.90;93.60;;;;;;5017368;28;20060;-47
2023/07/15 04:29:06;;;;;;;5.50;2.58;;;19.90;93.70;;;;;;4997791;28;20037;-48
2023/07/15 04:31:32;;;;;;;5.68;2.85;;;19.90;93.80;;;;;;5016266;28;20279;-50
2023/07/15 04:33:58;;;;;;;4.80;2.70;;;19.90;93.80;;;;;;5017728;28;20052;-46
2023/07/15 04:36:23;;;;;;;6.70;2.80;;;19.90;93.80;;;;;;5016798;28;20503;-47
2023/07/15 04:38:49;;;;;;;6.05;2.92;;;19.90;93.90;;;;;;5018348;28;20076;-48
2023/07/15 04:41:15;;;;;;;5.97;2.65;;;19.90;93.90;;;;;;5015050;28;20090;-49
2023/07/15 04:43:41;;;;;;;3.85;2.70;;;19.90;93.90;;;;;;5016227;28;20045;-49
2023/07/15 04:46:07;;;;;;;8.02;2.53;;;20.00;94.00;;;;;;5017830;28;20041;-49
2023/07/15 04:48:34;;;;;;;5.88;2.50;;;20.00;94.00;;;;;;5016027;28;20392;-49
2023/07/15 04:50:59;;;;;;;7.40;2.90;;;20.00;94.00;;;;;;5003937;28;20048;-50
2023/07/15 04:53:26;;;;;;;10.20;2.85;;;20.00;94.00;;;;;;5016332;28;20046;-48
2023/07/15 04:55:52;;;;;;;3.83;2.65;;;20.00;94.00;;;;;;5016577;28;20080;-47
2023/07/15 04:58:18;;;;;;;6.88;2.78;;;20.00;93.90;;;;;;4999220;28;20048;-47
2023/07/15 05:00:45;;;;;;;8.05;3.00;;;20.10;94.00;;;;;;4987245;28;20120;-47
2023/07/15 05:03:12;;;;;;;4.75;2.75;;;20.10;94.00;;;;;;5017828;28;20080;-48
2023/07/15 05:05:41;;;;;;;6.22;2.78;;;20.20;94.10;;;;;;5014430;28;20040;-49
2023/07/15 05:08:12;;;;;;;4.65;2.90;;;20.20;94.10;;;;;;5015883;28;20041;-49
2023/07/15 05:10:38;;;;;;;6.90;2.70;;;20.20;94.10;;;;;;5017831;28;20046;-48
2023/07/15 05:13:06;;;;;;;7.65;2.88;;;20.20;94.10;;;;;;5016333;28;20503;-49
2023/07/15 05:15:33;;;;;;;9.00;2.88;;;20.20;94.30;;;;;;5001693;28;20048;-49
2023/07/15 05:17:59;;;;;;;6.75;2.70;;;20.20;94.30;;;;;;5016202;28;20049;-49
2023/07/15 05:20:25;;;;;;;5.05;2.75;;;20.20;94.40;;;;;;5012326;28;20049;-48
2023/07/15 05:22:51;;;;;;;4.00;2.53;;;20.20;94.40;;;;;;5017054;28;20078;-51
2023/07/15 05:25:17;;;;;;;6.57;2.78;;;20.30;94.50;;;;;;5013680;28;20147;-48
2023/07/15 05:27:43;;;;;;;8.68;3.20;;;20.30;94.60;;;;;;4995919;28;20052;-48
2023/07/15 05:30:09;;;;;;;4.60;2.78;;;20.30;94.70;;;;;;4997904;28;20050;-48
2023/07/15 05:32:36;;;;;;;7.63;2.88;;;20.30;94.80;;;;;;5011329;28;20056;-48
2023/07/15 05:35:02;;;;;;;7.40;2.70;;;20.30;94.90;;;;;;4997127;28;20042;-51
2023/07/15 05:37:28;;;;;;;7.53;2.75;;;20.40;95.00;;;;;;5013760;28;20091;-49
2023/07/15 05:39:54;;;;;;;4.10;2.80;;;20.40;95.10;;;;;;5012016;28;20124;-52
2023/07/15 05:42:20;;;;;;;8.27;2.92;;;20.40;95.20;;;;;;5014921;28;20045;-49
2023/07/15 05:44:46;;;;;;;5.38;2.70;;;20.50;95.40;;;;;;5012921;28;20048;-48
2023/07/15 05:47:11;;;;;;;6.38;2.80;;;20.40;95.50;;;;;;5014523;28;20049;-53
2023/07/15 05:49:37;;;;;;;5.07;2.70;;;20.50;95.60;;;;;;5014847;28;20711;-49
2023/07/15 05:52:03;;;;;;;4.85;2.70;;;20.50;95.70;;;;;;5013528;28;20096;-48
2023/07/15 05:54:29;;;;;;;4.07;2.67;;;20.50;95.70;;;;;;5010217;28;20581;-48
2023/07/15 05:56:57;;;;;;;4.65;2.80;;;20.60;95.70;;;;;;5013824;28;20058;-50
2023/07/15 05:59:23;;;;;;;8.93;2.50;;;20.60;95.60;;;;;;5013258;28;20045;-49
2023/07/15 06:01:49;;;;;;;4.82;2.70;;;20.60;95.70;;;;;;4997505;28;20041;-50
2023/07/15 06:04:14;;;;;;;5.05;2.75;;;20.70;95.80;;;;;;5010123;28;20053;-51
2023/07/15 06:06:40;;;;;;;6.35;2.78;;;20.70;95.90;;;;;;5007736;28;20056;-49
2023/07/15 06:09:06;;;;;;;5.50;2.60;;;20.80;96.00;;;;;;5014011;28;20388;-48
2023/07/15 06:11:32;;;;;;;3.63;2.63;;;20.90;96.50;;;;;;5009637;28;20128;-50
2023/07/15 06:14:01;;;;;;;5.22;2.83;;;21.00;96.50;;;;;;5012319;28;20088;-49
2023/07/15 06:16:27;;;;;;;4.68;2.47;;;21.10;96.70;;;;;;5003572;28;20115;-50
2023/07/15 06:18:53;;;;;;;4.35;2.60;;;21.20;97.10;;;;;;5003998;28;20049;-50
2023/07/15 06:21:18;;;;;;;3.67;2.50;;;21.30;97.40;;;;;;4987905;28;20416;-51
2023/07/15 06:23:44;;;;;;;4.68;2.50;;;21.40;97.70;;;;;;4997153;28;20127;-50
2023/07/15 06:26:10;;;;;;;6.15;2.70;;;21.40;98.10;;;;;;5003041;28;20068;-48
2023/07/15 06:28:35;;;;;;;5.47;2.70;;;21.60;98.30;;;;;;4990169;28;20096;-49
2023/07/15 06:31:06;;;;;;;5.07;2.40;;;21.70;98.50;;;;;;4969925;28;20053;-49
2023/07/15 06:33:34;;;;;;;4.30;2.60;;;21.80;98.70;;;;;;4998497;28;20049;-51
2023/07/15 06:36:00;;;;;;;5.22;2.40;;;21.80;98.70;;;;;;4982471;28;20053;-50
2023/07/15 06:38:27;;;;;;;5.25;2.78;;;21.90;98.80;;;;;;5009743;28;21977;-49
2023/07/15 06:40:56;;;;;;;5.10;2.50;;;21.90;98.90;;;;;;5010838;28;20388;-47
2023/07/15 06:43:22;;;;;;;4.80;2.55;;;22.00;98.90;;;;;;5008709;28;21849;-49
2023/07/15 06:45:48;;;;;;;4.93;2.40;;;22.10;98.90;;;;;;5007821;28;20065;-48
2023/07/15 06:48:17;;;;;;;5.50;2.45;;;22.20;98.80;;;;;;5011142;28;20714;-51
2023/07/15 06:50:43;;;;;;;4.07;2.35;;;22.20;98.50;;;;;;4994561;28;20041;-48
2023/07/15 06:53:08;;;;;;;4.80;2.50;;;22.30;98.20;;;;;;5013859;28;20396;-48
2023/07/15 06:55:35;;;;;;;6.15;2.42;;;22.30;98.10;;;;;;5009889;28;20055;-49
2023/07/15 06:58:01;;;;;;;5.63;2.58;;;22.40;97.90;;;;;;5010018;28;20129;-50
2023/07/15 07:00:27;;;;;;;3.92;2.50;;;22.50;97.80;;;;;;4993489;28;20048;-49
2023/07/15 07:02:53;;;;;;;4.07;2.38;;;22.50;97.70;;;;;;5008398;28;20045;-49
2023/07/15 07:05:19;;;;;;;6.80;2.50;;;22.60;97.60;;;;;;5008701;28;20045;-50
2023/07/15 07:07:45;;;;;;;4.07;2.60;;;22.70;97.50;;;;;;4992905;28;20060;-48
2023/07/15 07:10:11;;;;;;;3.45;2.35;;;22.70;97.50;;;;;;5008613;28;21050;-48
2023/07/15 07:12:38;;;;;;;11.32;2.63;;;22.80;97.60;;;;;;5009869;28;20402;-52
2023/07/15 07:15:04;;;;;;;4.25;2.20;;;22.90;97.70;;;;;;4989152;28;20045;-49
2023/07/15 07:17:30;;;;;;;3.83;2.33;;;22.90;97.50;;;;;;5008222;28;21176;-49
2023/07/15 07:19:56;;;;;;;9.98;2.90;;;23.00;97.70;;;;;;5012096;28;20046;-49
2023/07/15 07:22:21;;;;;;;5.82;2.67;;;23.10;97.80;;;;;;4994791;28;20687;-50
2023/07/15 07:24:49;;;;;;;5.65;2.55;;;23.20;97.70;;;;;;5013152;28;20045;-48
2023/07/15 07:27:15;;;;;;;4.30;2.40;;;23.30;97.50;;;;;;5010029;28;20103;-48
2023/07/15 07:29:40;;;;;;;9.18;2.63;;;23.40;97.50;;;;;;4994856;28;20587;-48
2023/07/15 07:32:06;;;;;;;4.22;2.53;;;23.60;97.30;;;;;;5013936;28;20042;-51
2023/07/15 07:34:33;;;;;;;4.55;2.40;;;23.70;97.20;;;;;;5013010;28;20037;-52
2023/07/15 07:36:59;;;;;;;5.28;2.05;;;23.80;96.90;;;;;;4997624;28;20110;-51
2023/07/15 07:39:25;;;;;;;6.03;2.47;;;23.80;96.90;;;;;;4992021;28;20045;-51
2023/07/15 07:41:51;;;;;;;3.85;2.20;;;23.90;97.00;;;;;;5004894;28;20077;-49
2023/07/15 07:44:16;;;;;;;5.22;2.42;;;23.90;96.60;;;;;;5008443;28;20041;-48
2023/07/15 07:46:42;;;;;;;4.63;2.60;;;24.00;96.20;;;;;;5008408;28;20068;-50
2023/07/15 07:49:08;;;;;;;6.18;2.53;;;24.00;96.20;;;;;;5005369;28;20041;-52
2023/07/15 07:51:34;;;;;;;4.75;2.30;;;23.90;95.80;;;;;;5004419;28;20445;-48
2023/07/15 07:53:59;;;;;;;4.82;2.15;;;23.90;95.90;;;;;;5008351;28;20041;-49
2023/07/15 07:56:27;;;;;;;4.03;2.17;;;23.90;95.70;;;;;;5005657;28;20349;-52
2023/07/15 07:58:58;;;;;;;4.40;2.22;;;23.90;95.60;;;;;;5006584;28;20068;-50
2023/07/15 08:01:28;;;;;;;6.38;2.20;;;23.90;95.30;;;;;;4985656;28;20041;-49
2023/07/15 08:03:54;;;;;;;3.03;2.35;;;23.90;95.50;;;;;;5003127;28;20073;-48
2023/07/15 08:06:23;;;;;;;6.68;2.38;;;24.00;95.60;;;;;;5009393;28;20041;-50
2023/07/15 08:08:50;;;;;;;4.82;2.20;;;24.10;95.30;;;;;;5005892;28;20315;-49
2023/07/15 08:11:16;;;;;;;7.07;2.20;;;24.20;95.20;;;;;;5007747;28;20046;-50
2023/07/15 08:13:42;;;;;;;3.90;2.33;;;24.30;95.20;;;;;;5005560;28;21249;-50
2023/07/15 08:16:31;;;;;;;4.10;1.83;;;24.40;94.80;;;;;;4993097;28;20049;-49
2023/07/15 08:18:57;;;;;;;4.43;1.90;;;24.50;94.60;;;;;;5007327;28;20554;-51
2023/07/15 08:21:23;;;;;;;3.72;2.05;;;24.50;93.80;;;;;;4993292;28;20382;-51
2023/07/15 08:23:49;;;;;;;3.90;1.90;;;24.60;93.40;;;;;;5009012;28;20047;-49
2023/07/15 08:26:15;;;;;;;4.28;2.10;;;24.60;92.80;;;;;;4995552;28;20460;-50
2023/07/15 08:28:40;;;;;;;3.58;1.85;;;24.60;92.70;;;;;;5006071;28;20111;-50
2023/07/15 08:31:06;;;;;;;3.50;1.80;;;24.60;92.40;;;;;;5007766;28;20092;-50
2023/07/15 08:33:32;;;;;;;4.00;1.77;;;24.60;92.60;;;;;;5008196;28;20037;-50
2023/07/15 08:35:57;;;;;;;3.03;1.50;;;24.60;92.50;;;;;;5006574;28;20235;-48
2023/07/15 08:38:23;;;;;;;4.90;2.00;;;24.60;92.50;;;;;;4995587;28;20807;-49
2023/07/15 08:40:54;;;;;;;4.97;1.77;;;24.70;92.60;;;;;;5012006;28;20053;-48
2023/07/15 08:43:19;;;;;;;4.70;1.60;;;24.70;92.70;;;;;;5010635;28;20379;-50
2023/07/15 08:45:48;;;;;;;4.70;2.05;;;24.80;92.50;;;;;;5013997;28;20128;-50
2023/07/15 08:48:14;;;;;;;3.08;1.50;;;24.90;92.20;;;;;;5010555;28;23930;-50
2023/07/15 08:50:41;;;;;;;2.42;1.33;;;24.90;92.40;;;;;;4994916;28;20124;-49
2023/07/15 08:53:08;;;;;;;4.65;1.58;;;25.00;92.50;;;;;;5006586;28;20041;-49
2023/07/15 08:55:34;;;;;;;2.80;1.70;;;25.10;92.40;;;;;;5006952;28;20041;-50
2023/07/15 08:58:00;;;;;;;2.20;1.48;;;25.30;92.20;;;;;;4998029;28;20076;-50
2023/07/15 09:00:26;;;;;;;2.45;1.48;;;25.40;91.70;;;;;;5005317;28;20029;-48
2023/07/15 09:02:52;;;;;;;3.05;1.33;;;25.50;92.20;;;;;;5005809;28;20512;-50
2023/07/15 09:05:18;;;;;;;1.98;1.50;;;25.60;92.10;;;;;;5008090;28;20068;-48
2023/07/15 09:07:57;;;;;;;3.97;1.55;;;25.90;91.90;;;;;;5003936;28;20761;-52
2023/07/15 09:10:23;;;;;;;1.23;1.10;;;25.90;91.40;;;;;;5003904;28;20076;-52
2023/07/15 09:12:53;;;;;;;6.03;1.75;;;26.00;91.10;;;;;;5006418;28;20048;-50
2023/07/15 09:15:19;;;;;;;1.65;1.23;;;26.10;91.10;;;;;;5005403;28;20046;-51
2023/07/15 09:17:52;;;;;;;2.25;1.70;;;26.10;91.10;;;;;;5004750;28;20103;-52
2023/07/15 09:20:19;;;;;;;2.38;1.33;;;26.20;91.60;;;;;;4989126;28;20119;-53
2023/07/15 09:22:56;;;;;;;2.60;1.40;;;26.30;90.90;;;;;;5009014;28;20547;-51
2023/07/15 09:25:22;;;;;;;7.25;2.63;;;26.50;91.10;;;;;;4984539;28;20060;-53
2023/07/15 09:27:49;;;;;;;3.35;1.80;;;26.70;90.90;;;;;;4992903;28;20080;-52
2023/07/15 09:30:15;;;;;;;2.78;1.70;;;26.80;90.60;;;;;;5008145;28;20076;-52
2023/07/15 09:32:40;;;;;;;2.97;2.05;;;26.70;90.10;;;;;;5010074;28;20381;-54
2023/07/15 09:35:06;;;;;;;2.45;1.95;;;26.60;90.00;;;;;;5008601;28;20050;-55
2023/07/15 09:37:33;;;;;;;6.53;1.85;;;26.40;90.00;;;;;;5008145;28;20080;-51
2023/07/15 09:40:05;;;;;;;5.72;1.55;;;26.20;90.60;;;;;;5009818;28;20096;-52
2023/07/15 09:42:48;;;;;;;3.17;1.77;;;26.10;90.60;;;;;;4988758;28;20056;-51
2023/07/15 09:45:32;;;;;;;3.35;1.67;;;26.10;90.90;;;;;;5010825;28;20070;-53
2023/07/15 09:47:57;;;;;;;2.75;1.60;;;26.30;91.00;;;;;;5006566;28;20419;-54
2023/07/15 09:50:25;;;;;;;4.65;1.50;;;26.70;91.30;;;;;;5006191;28;20040;-53
2023/07/15 09:52:54;;;;;;;1.88;1.60;;;27.00;91.60;;;;;;5011327;28;20128;-53
2023/07/15 09:55:22;;;;;;;3.38;1.70;;;27.40;90.60;;;;;;4990973;28;20128;-52
2023/07/15 09:57:56;;;;;;;3.88;1.50;;;27.60;90.10;;;;;;4989801;28;20049;-51
2023/07/15 10:00:26;;;;;;;1.92;1.40;;;27.70;88.80;;;;;;5003589;28;20050;-54
2023/07/15 10:02:57;;;;;;;2.75;1.40;;;27.80;88.80;;;;;;5003685;28;20412;-53
2023/07/15 10:05:24;;;;;;;3.67;1.67;;;27.80;88.20;;;;;;5008581;28;20536;-53
2023/07/15 10:07:51;;;;;;;4.35;1.70;;;27.80;88.50;;;;;;5008312;28;20053;-54
2023/07/15 10:10:20;;;;;;;3.60;1.50;;;27.60;88.10;;;;;;5008943;28;20042;-53
2023/07/15 10:12:46;;;;;;;3.47;1.30;;;27.50;88.00;;;;;;5008792;28;20033;-53
2023/07/15 10:15:13;;;;;;;2.05;1.50;;;27.40;87.20;;;;;;5007480;28;20049;-53
2023/07/15 10:17:39;;;;;;;5.07;1.40;;;27.30;87.20;;;;;;5009377;28;20041;-53
2023/07/15 10:20:12;;;;;;;4.32;1.30;;;27.10;87.20;;;;;;5009337;28;20094;-53
2023/07/15 10:22:39;;;;;;;3.60;1.30;;;27.10;87.40;;;;;;4992302;28;20133;-52
2023/07/15 10:25:11;;;;;;;2.25;1.50;;;27.00;87.20;;;;;;5005662;28;20049;-52
2023/07/15 10:27:38;;;;;;;4.45;1.63;;;26.90;87.50;;;;;;5010956;28;20049;-50
2023/07/15 10:30:26;;;;;;;4.50;1.58;;;26.80;87.60;;;;;;5008983;28;22252;-54
2023/07/15 10:32:59;;;;;;;4.65;1.63;;;26.70;87.90;;;;;;4990476;28;20049;-51
2023/07/15 10:35:28;;;;;;;;;;;26.60;88.70;;;;;;5010384;28;20728;-52
2023/07/15 10:37:56;;;;;;;5.82;1.80;;;26.60;89.60;;;;;;5006765;28;19931;-52
2023/07/15 10:40:48;;;;;;;2.83;1.55;;;26.60;89.20;;;;;;5011251;28;20528;-52
2023/07/15 10:43:21;;;;;;;4.20;1.73;;;26.60;89.40;;;;;;5008354;28;20057;-53
2023/07/15 10:45:54;;;;;;;5.50;1.80;;;26.70;89.40;;;;;;5010840;28;20072;-51
2023/07/15 10:48:22;;;;;;;3.95;1.90;;;26.70;90.00;;;;;;5008798;28;20664;-51
2023/07/15 10:50:52;;;;;;;2.17;1.58;;;26.80;89.80;;;;;;4972344;28;20084;-53
2023/07/15 10:53:26;;;;;;;4.65;1.80;;;26.80;90.00;;;;;;5006395;28;20034;-53
2023/07/15 10:55:58;;;;;;;2.65;1.70;;;26.90;90.10;;;;;;5007982;28;20499;-54
2023/07/15 10:58:29;;;;;;;3.90;1.90;;;27.00;89.60;;;;;;4987977;28;20037;-54
2023/07/15 11:01:00;;;;;;;3.83;2.03;;;27.00;89.00;;;;;;4995882;28;20084;-54
2023/07/15 11:03:30;;;;;;;2.88;1.77;;;27.10;88.90;;;;;;4995392;28;20045;-53
2023/07/15 11:05:59;;;;;;;3.08;1.80;;;27.00;88.90;;;;;;5006941;28;20057;-55
2023/07/15 11:08:25;;;;;;;4.43;1.77;;;27.00;89.20;;;;;;5010252;28;20072;-53
2023/07/15 11:11:03;;;;;;;2.10;1.67;;;27.00;89.10;;;;;;5007920;28;20049;-53
2023/07/15 11:13:30;;;;;;;2.90;1.60;;;27.00;88.40;;;;;;4998815;28;20187;-54
2023/07/15 11:15:57;;;;;;;2.80;1.90;;;27.20;87.70;;;;;;5006972;28;20043;-51
2023/07/15 11:18:25;;;;;;;2.95;1.75;;;27.40;86.70;;;;;;5008413;28;20072;-51
2023/07/15 11:20:59;;;;;;;4.95;2.22;;;27.60;86.50;;;;;;5010532;28;20041;-52
2023/07/15 11:23:28;;;;;;;4.68;2.00;;;27.90;85.40;;;;;;5007342;28;20069;-53
2023/07/15 11:25:54;;;;;;;2.28;1.73;;;28.20;84.10;;;;;;5009293;28;20127;-50
2023/07/15 11:28:19;;;;;;;4.68;1.73;;;28.50;84.30;;;;;;4996270;28;20054;-54
2023/07/15 11:30:47;;;;;;;3.05;1.90;;;28.70;84.00;;;;;;5009131;28;20052;-53
2023/07/15 11:33:13;;;;;;;5.13;1.73;;;28.80;82.10;;;;;;5008538;28;20506;-54
2023/07/15 11:35:41;;;;;;;3.58;1.80;;;28.60;81.80;;;;;;4987922;28;20072;-54
2023/07/15 11:38:15;;;;;;;4.47;1.83;;;28.50;81.40;;;;;;5006298;28;20041;-53
2023/07/15 11:40:55;;;;;;;6.10;1.90;;;28.60;81.70;;;;;;5009746;28;20753;-53
2023/07/15 11:43:26;;;;;;;3.15;1.55;;;28.70;81.80;;;;;;5009694;28;20048;-52
2023/07/15 11:46:00;;;;;;;4.03;2.03;;;28.60;81.20;;;;;;4991008;28;20037;-55
2023/07/15 11:48:31;;;;;;;2.08;1.48;;;28.30;80.70;;;;;;5008029;28;20069;-54
2023/07/15 11:51:07;;;;;;;1.95;1.52;;;28.10;80.70;;;;;;5006776;28;20042;-51
2023/07/15 11:53:38;;;;;;;1.88;1.48;;;27.80;80.40;;;;;;5008790;28;20477;-55
2023/07/15 11:56:06;;;;;;;1.90;1.48;;;27.70;80.20;;;;;;5007349;28;20054;-54
2023/07/15 11:58:42;;;;;;;4.28;1.75;;;27.50;80.20;;;;;;5011832;28;20128;-55
2023/07/15 12:01:14;;;;;;;1.60;1.50;;;27.40;80.70;;;;;;5010816;28;20077;-53
2023/07/15 12:03:40;;;;;;;2.45;1.67;;;27.30;81.30;;;;;;5009794;28;20282;-50
2023/07/15 12:06:17;;;;;;;2.25;1.40;;;27.20;81.50;;;;;;5007761;28;20034;-52
2023/07/15 12:09:03;;;;;;;2.17;1.55;;;27.10;82.40;;;;;;4992737;28;20388;-53
2023/07/15 12:11:31;;;;;;;3.45;1.70;;;27.20;83.60;;;;;;5011148;28;20141;-54
2023/07/15 12:13:57;;;;;;;2.20;1.15;;;27.30;84.50;;;;;;5002476;28;20041;-53
2023/07/15 12:16:26;;;;;;;1.73;1.35;;;27.50;83.70;;;;;;5013228;28;20046;-54
2023/07/15 12:18:55;;;;;;;4.68;1.50;;;27.60;83.60;;;;;;4993992;28;20212;-54
2023/07/15 12:21:21;;;;;;;2.38;1.30;;;27.60;83.40;;;;;;5011193;28;20475;-54
2023/07/15 12:23:47;;;;;;;2.22;1.20;;;27.60;82.00;;;;;;5003206;28;20553;-53
2023/07/15 12:26:13;;;;;;;2.22;1.30;;;27.50;81.20;;;;;;5014604;28;20050;-54
2023/07/15 12:28:39;;;;;;;2.60;1.40;;;27.50;80.90;;;;;;4999512;28;20049;-54
2023/07/15 12:31:04;;;;;;;4.35;1.50;;;27.40;81.00;;;;;;4994445;28;20049;-55
2023/07/15 12:33:30;;;;;;;4.20;1.63;;;27.40;81.60;;;;;;4994584;28;20452;-55
2023/07/15 12:35:56;;;;;;;6.47;1.52;;;27.50;81.50;;;;;;5011343;28;20120;-54
2023/07/15 12:38:22;;;;;;;3.42;1.30;;;27.80;80.90;;;;;;5008619;28;20120;-52
2023/07/15 12:40:48;;;;;;;13.35;2.00;;;27.90;80.30;;;;;;5010578;28;20664;-51
2023/07/15 12:43:14;;;;;;;3.25;1.38;;;27.90;80.30;;;;;;5005098;28;20046;-55
2023/07/15 12:45:41;;;;;;;4.60;1.30;;;27.80;80.70;;;;;;5007071;28;20057;-52
2023/07/15 12:48:07;;;;;;;2.28;1.10;;;27.90;80.60;;;;;;4990874;28;20054;-56
2023/07/15 12:50:32;;;;;;;2.10;1.25;;;27.90;79.60;;;;;;5007628;28;20476;-53